sensor_id;sensor_type;location;lat;lon;timestamp;temperature;humidity
31677;DHT22;18385;51.572;6.578;2022-11-20T00:01:21;1.60;61.00
31677;DHT22;18385;51.572;6.578;2022-11-20T00:03:48;1.50;60.90
31677;DHT22;18385;51.572;6.578;2022-11-20T00:06:18;1.50;61.00
31677;DHT22;18385;51.572;6.578;2022-11-20T00:08:45;1.50;61.00
31677;DHT22;18385;51.572;6.578;2022-11-20T00:11:15;1.50;61.10
31677;DHT22;18385;51.572;6.578;2022-11-20T00:13:41;1.60;61.20
31677;DHT22;18385;51.572;6.578;2022-11-20T00:16:09;1.50;61.10
31677;DHT22;18385;51.572;6.578;2022-11-20T00:18:35;1.60;61.20
31677;DHT22;18385;51.572;6.578;2022-11-20T00:21:06;1.60;61.10
31677;DHT22;18385;51.572;6.578;2022-11-20T00:23:33;1.60;61.10
31677;DHT22;18385;51.572;6.578;2022-11-20T00:26:07;1.50;61.00
31677;DHT22;18385;51.572;6.578;2022-11-20T00:28:33;1.50;61.10
31677;DHT22;18385;51.572;6.578;2022-11-20T00:31:13;1.50;61.10
31677;DHT22;18385;51.572;6.578;2022-11-20T00:33:40;1.50;61.20
31677;DHT22;18385;51.572;6.578;2022-11-20T00:36:07;1.40;61.90
31677;DHT22;18385;51.572;6.578;2022-11-20T00:38:33;1.40;61.30
31677;DHT22;18385;51.572;6.578;2022-11-20T00:41:01;1.40;61.20
31677;DHT22;18385;51.572;6.578;2022-11-20T00:43:27;1.40;61.30
31677;DHT22;18385;51.572;6.578;2022-11-20T00:46:01;1.40;61.30
31677;DHT22;18385;51.572;6.578;2022-11-20T00:48:27;1.30;61.30
31677;DHT22;18385;51.572;6.578;2022-11-20T00:50:53;1.30;61.30
31677;DHT22;18385;51.572;6.578;2022-11-20T00:53:20;1.30;61.40
31677;DHT22;18385;51.572;6.578;2022-11-20T00:56:06;1.30;61.50
31677;DHT22;18385;51.572;6.578;2022-11-20T00:58:34;1.30;61.60
31677;DHT22;18385;51.572;6.578;2022-11-20T01:03:30;1.20;61.50
31677;DHT22;18385;51.572;6.578;2022-11-20T01:06:00;1.20;61.50
31677;DHT22;18385;51.572;6.578;2022-11-20T01:08:29;1.20;61.50
31677;DHT22;18385;51.572;6.578;2022-11-20T01:11:02;1.20;61.50
31677;DHT22;18385;51.572;6.578;2022-11-20T01:13:30;1.20;61.60
31677;DHT22;18385;51.572;6.578;2022-11-20T01:18:34;1.20;61.60
31677;DHT22;18385;51.572;6.578;2022-11-20T01:21:06;1.10;61.60
31677;DHT22;18385;51.572;6.578;2022-11-20T01:23:33;1.10;61.70
31677;DHT22;18385;51.572;6.578;2022-11-20T01:26:01;1.10;61.70
31677;DHT22;18385;51.572;6.578;2022-11-20T01:28:28;1.10;61.70
31677;DHT22;18385;51.572;6.578;2022-11-20T01:30:54;1.10;61.70
31677;DHT22;18385;51.572;6.578;2022-11-20T01:33:20;1.10;61.80
31677;DHT22;18385;51.572;6.578;2022-11-20T01:35:45;1.10;62.10
31677;DHT22;18385;51.572;6.578;2022-11-20T01:38:11;1.10;61.80
31677;DHT22;18385;51.572;6.578;2022-11-20T01:40:37;1.10;61.90
31677;DHT22;18385;51.572;6.578;2022-11-20T01:43:18;1.00;61.80
31677;DHT22;18385;51.572;6.578;2022-11-20T01:48:22;1.00;61.90
31677;DHT22;18385;51.572;6.578;2022-11-20T01:50:50;1.00;61.90
31677;DHT22;18385;51.572;6.578;2022-11-20T01:53:18;1.00;61.90
31677;DHT22;18385;51.572;6.578;2022-11-20T01:55:52;0.90;61.90
31677;DHT22;18385;51.572;6.578;2022-11-20T01:58:21;0.90;62.00
31677;DHT22;18385;51.572;6.578;2022-11-20T02:00:48;1.00;62.10
31677;DHT22;18385;51.572;6.578;2022-11-20T02:03:16;1.00;62.00
31677;DHT22;18385;51.572;6.578;2022-11-20T02:08:46;1.00;62.10
31677;DHT22;18385;51.572;6.578;2022-11-20T02:11:12;0.90;62.10
31677;DHT22;18385;51.572;6.578;2022-11-20T02:13:38;0.90;62.10
31677;DHT22;18385;51.572;6.578;2022-11-20T02:18:42;0.90;62.10
31677;DHT22;18385;51.572;6.578;2022-11-20T02:21:47;0.90;62.10
31677;DHT22;18385;51.572;6.578;2022-11-20T02:24:16;0.90;62.20
31677;DHT22;18385;51.572;6.578;2022-11-20T02:26:56;0.90;62.30
31677;DHT22;18385;51.572;6.578;2022-11-20T02:29:35;0.90;62.30
31677;DHT22;18385;51.572;6.578;2022-11-20T02:32:02;0.90;62.30
31677;DHT22;18385;51.572;6.578;2022-11-20T02:34:28;0.90;62.30
31677;DHT22;18385;51.572;6.578;2022-11-20T02:36:54;1.00;62.30
31677;DHT22;18385;51.572;6.578;2022-11-20T02:39:21;1.00;62.30
31677;DHT22;18385;51.572;6.578;2022-11-20T02:41:47;1.00;62.30
31677;DHT22;18385;51.572;6.578;2022-11-20T02:44:13;1.00;62.30
31677;DHT22;18385;51.572;6.578;2022-11-20T02:46:38;1.00;62.30
31677;DHT22;18385;51.572;6.578;2022-11-20T02:49:05;1.00;62.30
31677;DHT22;18385;51.572;6.578;2022-11-20T02:51:31;1.00;62.20
31677;DHT22;18385;51.572;6.578;2022-11-20T02:53:57;1.00;62.20
31677;DHT22;18385;51.572;6.578;2022-11-20T02:56:23;0.90;62.20
31677;DHT22;18385;51.572;6.578;2022-11-20T02:58:49;0.90;62.30
31677;DHT22;18385;51.572;6.578;2022-11-20T03:01:15;0.90;62.40
31677;DHT22;18385;51.572;6.578;2022-11-20T03:03:41;0.90;62.50
31677;DHT22;18385;51.572;6.578;2022-11-20T03:06:07;0.90;62.50
31677;DHT22;18385;51.572;6.578;2022-11-20T03:08:33;0.90;62.60
31677;DHT22;18385;51.572;6.578;2022-11-20T03:11:04;0.80;62.50
31677;DHT22;18385;51.572;6.578;2022-11-20T03:13:30;0.90;62.60
31677;DHT22;18385;51.572;6.578;2022-11-20T03:15:56;0.80;62.60
31677;DHT22;18385;51.572;6.578;2022-11-20T03:18:21;0.80;62.70
31677;DHT22;18385;51.572;6.578;2022-11-20T03:20:47;0.90;62.70
31677;DHT22;18385;51.572;6.578;2022-11-20T03:23:13;0.90;62.80
31677;DHT22;18385;51.572;6.578;2022-11-20T03:25:38;1.00;62.90
31677;DHT22;18385;51.572;6.578;2022-11-20T03:28:04;1.10;63.00
31677;DHT22;18385;51.572;6.578;2022-11-20T03:30:30;1.20;62.90
31677;DHT22;18385;51.572;6.578;2022-11-20T03:32:55;1.30;62.90
31677;DHT22;18385;51.572;6.578;2022-11-20T03:35:21;1.50;62.90
31677;DHT22;18385;51.572;6.578;2022-11-20T03:37:47;1.60;62.70
31677;DHT22;18385;51.572;6.578;2022-11-20T03:40:12;1.60;62.60
31677;DHT22;18385;51.572;6.578;2022-11-20T03:42:38;1.70;62.60
31677;DHT22;18385;51.572;6.578;2022-11-20T03:45:17;1.80;62.50
31677;DHT22;18385;51.572;6.578;2022-11-20T03:47:43;1.90;62.50
31677;DHT22;18385;51.572;6.578;2022-11-20T03:50:11;2.10;62.50
31677;DHT22;18385;51.572;6.578;2022-11-20T03:52:38;2.10;62.40
31677;DHT22;18385;51.572;6.578;2022-11-20T03:55:05;2.20;62.30
31677;DHT22;18385;51.572;6.578;2022-11-20T03:57:31;2.30;62.20
31677;DHT22;18385;51.572;6.578;2022-11-20T03:59:57;2.40;62.10
31677;DHT22;18385;51.572;6.578;2022-11-20T04:02:22;2.50;62.10
31677;DHT22;18385;51.572;6.578;2022-11-20T04:04:48;2.60;62.20
31677;DHT22;18385;51.572;6.578;2022-11-20T04:07:13;2.60;62.10
31677;DHT22;18385;51.572;6.578;2022-11-20T04:09:39;2.60;62.00
31677;DHT22;18385;51.572;6.578;2022-11-20T04:12:05;2.70;61.90
31677;DHT22;18385;51.572;6.578;2022-11-20T04:14:31;2.70;61.90
31677;DHT22;18385;51.572;6.578;2022-11-20T04:16:56;2.70;61.90
31677;DHT22;18385;51.572;6.578;2022-11-20T04:19:22;2.80;62.10
31677;DHT22;18385;51.572;6.578;2022-11-20T04:21:48;2.80;61.90
31677;DHT22;18385;51.572;6.578;2022-11-20T04:24:13;2.80;61.90
31677;DHT22;18385;51.572;6.578;2022-11-20T04:26:39;2.90;61.90
31677;DHT22;18385;51.572;6.578;2022-11-20T04:29:05;2.90;61.80
31677;DHT22;18385;51.572;6.578;2022-11-20T04:31:33;2.90;61.70
31677;DHT22;18385;51.572;6.578;2022-11-20T04:34:01;2.90;61.80
31677;DHT22;18385;51.572;6.578;2022-11-20T04:36:27;2.90;61.60
31677;DHT22;18385;51.572;6.578;2022-11-20T04:38:55;2.90;61.70
31677;DHT22;18385;51.572;6.578;2022-11-20T04:41:22;2.90;61.80
31677;DHT22;18385;51.572;6.578;2022-11-20T04:43:54;2.80;61.70
31677;DHT22;18385;51.572;6.578;2022-11-20T04:46:25;2.90;62.00
31677;DHT22;18385;51.572;6.578;2022-11-20T04:48:51;2.80;61.90
31677;DHT22;18385;51.572;6.578;2022-11-20T04:51:17;2.80;62.00
31677;DHT22;18385;51.572;6.578;2022-11-20T04:53:42;2.80;62.10
31677;DHT22;18385;51.572;6.578;2022-11-20T04:56:10;2.80;62.20
31677;DHT22;18385;51.572;6.578;2022-11-20T04:58:37;2.90;62.30
31677;DHT22;18385;51.572;6.578;2022-11-20T05:01:11;3.00;62.30
31677;DHT22;18385;51.572;6.578;2022-11-20T05:03:38;3.00;62.10
31677;DHT22;18385;51.572;6.578;2022-11-20T05:06:05;3.00;62.10
31677;DHT22;18385;51.572;6.578;2022-11-20T05:08:31;3.00;62.10
31677;DHT22;18385;51.572;6.578;2022-11-20T05:11:09;2.90;61.90
31677;DHT22;18385;51.572;6.578;2022-11-20T05:13:36;3.00;62.20
31677;DHT22;18385;51.572;6.578;2022-11-20T05:16:03;2.90;62.00
31677;DHT22;18385;51.572;6.578;2022-11-20T05:18:29;2.90;62.10
31677;DHT22;18385;51.572;6.578;2022-11-20T05:20:56;2.90;62.90
31677;DHT22;18385;51.572;6.578;2022-11-20T05:23:21;2.90;62.10
31677;DHT22;18385;51.572;6.578;2022-11-20T05:25:47;2.90;62.20
31677;DHT22;18385;51.572;6.578;2022-11-20T05:28:13;2.90;62.30
31677;DHT22;18385;51.572;6.578;2022-11-20T05:30:39;3.00;62.40
31677;DHT22;18385;51.572;6.578;2022-11-20T05:33:05;2.90;62.20
31677;DHT22;18385;51.572;6.578;2022-11-20T05:35:30;2.80;62.20
31677;DHT22;18385;51.572;6.578;2022-11-20T05:37:56;2.80;62.30
31677;DHT22;18385;51.572;6.578;2022-11-20T05:40:21;2.70;62.40
31677;DHT22;18385;51.572;6.578;2022-11-20T05:42:47;2.70;62.40
31677;DHT22;18385;51.572;6.578;2022-11-20T05:45:12;2.70;62.40
31677;DHT22;18385;51.572;6.578;2022-11-20T05:47:38;2.60;62.40
31677;DHT22;18385;51.572;6.578;2022-11-20T05:50:04;2.50;62.40
31677;DHT22;18385;51.572;6.578;2022-11-20T05:52:30;2.50;62.60
31677;DHT22;18385;51.572;6.578;2022-11-20T05:54:56;2.40;63.40
31677;DHT22;18385;51.572;6.578;2022-11-20T05:57:22;2.30;62.70
31677;DHT22;18385;51.572;6.578;2022-11-20T05:59:47;2.40;62.90
31677;DHT22;18385;51.572;6.578;2022-11-20T06:02:13;2.40;63.10
31677;DHT22;18385;51.572;6.578;2022-11-20T06:04:39;2.40;63.10
31677;DHT22;18385;51.572;6.578;2022-11-20T06:07:05;2.50;63.10
31677;DHT22;18385;51.572;6.578;2022-11-20T06:09:31;2.60;63.10
31677;DHT22;18385;51.572;6.578;2022-11-20T06:11:57;2.60;63.10
31677;DHT22;18385;51.572;6.578;2022-11-20T06:14:23;2.70;63.10
31677;DHT22;18385;51.572;6.578;2022-11-20T06:16:48;2.70;63.00
31677;DHT22;18385;51.572;6.578;2022-11-20T06:19:14;2.80;63.00
31677;DHT22;18385;51.572;6.578;2022-11-20T06:21:40;2.80;62.90
31677;DHT22;18385;51.572;6.578;2022-11-20T06:24:06;2.90;63.00
31677;DHT22;18385;51.572;6.578;2022-11-20T06:26:34;2.80;62.80
31677;DHT22;18385;51.572;6.578;2022-11-20T06:28:59;2.80;62.80
31677;DHT22;18385;51.572;6.578;2022-11-20T06:31:25;2.70;62.70
31677;DHT22;18385;51.572;6.578;2022-11-20T06:33:51;2.70;62.70
31677;DHT22;18385;51.572;6.578;2022-11-20T06:36:19;2.60;62.70
31677;DHT22;18385;51.572;6.578;2022-11-20T06:38:45;2.50;62.70
31677;DHT22;18385;51.572;6.578;2022-11-20T06:41:14;2.40;62.80
31677;DHT22;18385;51.572;6.578;2022-11-20T06:43:40;2.30;63.00
31677;DHT22;18385;51.572;6.578;2022-11-20T06:46:06;2.20;63.10
31677;DHT22;18385;51.572;6.578;2022-11-20T06:48:32;2.10;63.20
31677;DHT22;18385;51.572;6.578;2022-11-20T06:50:58;2.10;63.40
31677;DHT22;18385;51.572;6.578;2022-11-20T06:53:24;2.10;63.60
31677;DHT22;18385;51.572;6.578;2022-11-20T06:55:50;2.20;63.70
31677;DHT22;18385;51.572;6.578;2022-11-20T06:58:17;2.30;63.70
31677;DHT22;18385;51.572;6.578;2022-11-20T07:00:43;2.40;63.70
31677;DHT22;18385;51.572;6.578;2022-11-20T07:03:10;2.50;63.60
31677;DHT22;18385;51.572;6.578;2022-11-20T07:05:36;2.50;63.60
31677;DHT22;18385;51.572;6.578;2022-11-20T07:08:03;2.60;63.50
31677;DHT22;18385;51.572;6.578;2022-11-20T07:10:28;2.60;63.40
31677;DHT22;18385;51.572;6.578;2022-11-20T07:12:54;2.60;63.40
31677;DHT22;18385;51.572;6.578;2022-11-20T07:15:21;2.60;63.50
31677;DHT22;18385;51.572;6.578;2022-11-20T07:17:47;2.60;63.50
31677;DHT22;18385;51.572;6.578;2022-11-20T07:20:14;2.60;63.40
31677;DHT22;18385;51.572;6.578;2022-11-20T07:22:40;2.60;63.30
31677;DHT22;18385;51.572;6.578;2022-11-20T07:25:06;2.60;63.40
31677;DHT22;18385;51.572;6.578;2022-11-20T07:27:32;2.50;63.40
31677;DHT22;18385;51.572;6.578;2022-11-20T07:29:58;2.40;63.50
31677;DHT22;18385;51.572;6.578;2022-11-20T07:32:23;2.40;63.70
31677;DHT22;18385;51.572;6.578;2022-11-20T07:34:49;2.40;63.80
31677;DHT22;18385;51.572;6.578;2022-11-20T07:37:15;2.40;63.80
31677;DHT22;18385;51.572;6.578;2022-11-20T07:39:41;2.40;63.80
31677;DHT22;18385;51.572;6.578;2022-11-20T07:42:08;2.40;63.80
31677;DHT22;18385;51.572;6.578;2022-11-20T07:44:36;2.40;63.70
31677;DHT22;18385;51.572;6.578;2022-11-20T07:47:02;2.30;63.60
31677;DHT22;18385;51.572;6.578;2022-11-20T07:49:27;2.30;63.70
31677;DHT22;18385;51.572;6.578;2022-11-20T07:51:53;2.20;63.80
31677;DHT22;18385;51.572;6.578;2022-11-20T07:54:20;2.20;63.90
31677;DHT22;18385;51.572;6.578;2022-11-20T07:56:46;2.20;64.00
31677;DHT22;18385;51.572;6.578;2022-11-20T07:59:12;2.20;64.10
31677;DHT22;18385;51.572;6.578;2022-11-20T08:01:41;2.20;64.10
31677;DHT22;18385;51.572;6.578;2022-11-20T08:04:07;2.20;64.10
31677;DHT22;18385;51.572;6.578;2022-11-20T08:06:32;2.20;64.30
31677;DHT22;18385;51.572;6.578;2022-11-20T08:08:58;2.30;64.30
31677;DHT22;18385;51.572;6.578;2022-11-20T08:11:24;2.30;64.20
31677;DHT22;18385;51.572;6.578;2022-11-20T08:14:08;2.40;64.30
31677;DHT22;18385;51.572;6.578;2022-11-20T08:16:46;2.40;64.20
31677;DHT22;18385;51.572;6.578;2022-11-20T08:19:13;2.50;64.20
31677;DHT22;18385;51.572;6.578;2022-11-20T08:21:39;2.60;65.00
31677;DHT22;18385;51.572;6.578;2022-11-20T08:24:06;2.70;64.30
31677;DHT22;18385;51.572;6.578;2022-11-20T08:26:32;2.80;64.30
31677;DHT22;18385;51.572;6.578;2022-11-20T08:28:58;2.90;64.20
31677;DHT22;18385;51.572;6.578;2022-11-20T08:31:26;3.00;64.10
31677;DHT22;18385;51.572;6.578;2022-11-20T08:33:51;3.10;64.10
31677;DHT22;18385;51.572;6.578;2022-11-20T08:36:18;3.20;64.10
31677;DHT22;18385;51.572;6.578;2022-11-20T08:38:48;3.30;64.10
31677;DHT22;18385;51.572;6.578;2022-11-20T08:41:14;3.50;63.90
31677;DHT22;18385;51.572;6.578;2022-11-20T08:43:58;3.60;63.90
31677;DHT22;18385;51.572;6.578;2022-11-20T08:46:26;3.70;63.80
31677;DHT22;18385;51.572;6.578;2022-11-20T08:48:52;3.80;63.70
31677;DHT22;18385;51.572;6.578;2022-11-20T08:51:19;3.90;63.70
31677;DHT22;18385;51.572;6.578;2022-11-20T08:53:45;3.90;63.60
31677;DHT22;18385;51.572;6.578;2022-11-20T08:56:11;4.00;63.60
31677;DHT22;18385;51.572;6.578;2022-11-20T08:58:38;4.00;63.50
31677;DHT22;18385;51.572;6.578;2022-11-20T09:01:04;3.90;63.50
31677;DHT22;18385;51.572;6.578;2022-11-20T09:03:29;3.90;63.70
31677;DHT22;18385;51.572;6.578;2022-11-20T09:06:04;4.00;63.80
31677;DHT22;18385;51.572;6.578;2022-11-20T09:08:30;4.10;63.80
31677;DHT22;18385;51.572;6.578;2022-11-20T09:10:57;4.10;63.80
31677;DHT22;18385;51.572;6.578;2022-11-20T09:13:24;4.20;63.70
31677;DHT22;18385;51.572;6.578;2022-11-20T09:16:07;4.20;63.60
31677;DHT22;18385;51.572;6.578;2022-11-20T09:18:34;4.20;63.60
31677;DHT22;18385;51.572;6.578;2022-11-20T09:21:03;4.20;63.50
31677;DHT22;18385;51.572;6.578;2022-11-20T09:23:34;4.20;63.60
31677;DHT22;18385;51.572;6.578;2022-11-20T09:26:12;4.20;63.70
31677;DHT22;18385;51.572;6.578;2022-11-20T09:28:37;4.20;63.80
31677;DHT22;18385;51.572;6.578;2022-11-20T09:31:07;4.20;64.60
31677;DHT22;18385;51.572;6.578;2022-11-20T09:33:33;4.30;63.90
31677;DHT22;18385;51.572;6.578;2022-11-20T09:35:59;4.40;64.00
31677;DHT22;18385;51.572;6.578;2022-11-20T09:38:24;4.40;64.00
31677;DHT22;18385;51.572;6.578;2022-11-20T09:43:50;4.70;64.00
31677;DHT22;18385;51.572;6.578;2022-11-20T09:54:25;5.30;63.80
31677;DHT22;18385;51.572;6.578;2022-11-20T09:56:56;5.50;63.90
31677;DHT22;18385;51.572;6.578;2022-11-20T09:59:40;5.70;63.90
31677;DHT22;18385;51.572;6.578;2022-11-20T10:02:37;5.90;63.70
31677;DHT22;18385;51.572;6.578;2022-11-20T10:05:25;6.20;63.50
31677;DHT22;18385;51.572;6.578;2022-11-20T10:08:20;6.30;63.20
31677;DHT22;18385;51.572;6.578;2022-11-20T10:11:04;6.50;63.10
31677;DHT22;18385;51.572;6.578;2022-11-20T10:14:17;6.60;63.00
31677;DHT22;18385;51.572;6.578;2022-11-20T10:19:56;6.90;63.00
31677;DHT22;18385;51.572;6.578;2022-11-20T10:24:56;7.20;62.80
31677;DHT22;18385;51.572;6.578;2022-11-20T10:30:09;7.40;62.70
31677;DHT22;18385;51.572;6.578;2022-11-20T10:32:38;7.40;62.60
31677;DHT22;18385;51.572;6.578;2022-11-20T10:35:13;7.50;62.50
31677;DHT22;18385;51.572;6.578;2022-11-20T10:37:44;7.60;62.50
31677;DHT22;18385;51.572;6.578;2022-11-20T10:42:47;7.80;62.50
31677;DHT22;18385;51.572;6.578;2022-11-20T10:48:07;7.80;62.30
31677;DHT22;18385;51.572;6.578;2022-11-20T10:50:36;7.80;62.50
31677;DHT22;18385;51.572;6.578;2022-11-20T10:55:48;8.10;62.70
31677;DHT22;18385;51.572;6.578;2022-11-20T11:01:17;8.30;62.30
31677;DHT22;18385;51.572;6.578;2022-11-20T11:03:43;8.30;62.20
31677;DHT22;18385;51.572;6.578;2022-11-20T11:06:31;8.40;62.20
31677;DHT22;18385;51.572;6.578;2022-11-20T11:09:00;8.40;62.20
31677;DHT22;18385;51.572;6.578;2022-11-20T11:11:30;8.40;62.10
31677;DHT22;18385;51.572;6.578;2022-11-20T11:14:11;8.40;62.10
31677;DHT22;18385;51.572;6.578;2022-11-20T11:16:52;8.40;62.10
31677;DHT22;18385;51.572;6.578;2022-11-20T11:19:19;8.40;62.30
31677;DHT22;18385;51.572;6.578;2022-11-20T11:21:55;8.40;62.40
31677;DHT22;18385;51.572;6.578;2022-11-20T11:24:27;8.50;62.30
31677;DHT22;18385;51.572;6.578;2022-11-20T11:27:04;8.60;62.30
31677;DHT22;18385;51.572;6.578;2022-11-20T11:29:35;8.70;63.00
31677;DHT22;18385;51.572;6.578;2022-11-20T11:32:12;8.70;62.30
31677;DHT22;18385;51.572;6.578;2022-11-20T11:34:38;8.70;62.30
31677;DHT22;18385;51.572;6.578;2022-11-20T11:37:04;8.80;62.50
31677;DHT22;18385;51.572;6.578;2022-11-20T11:39:31;8.90;62.50
31677;DHT22;18385;51.572;6.578;2022-11-20T11:42:00;9.00;62.30
31677;DHT22;18385;51.572;6.578;2022-11-20T11:44:33;9.00;62.20
31677;DHT22;18385;51.572;6.578;2022-11-20T11:47:26;9.00;62.20
31677;DHT22;18385;51.572;6.578;2022-11-20T11:55:32;8.90;62.20
31677;DHT22;18385;51.572;6.578;2022-11-20T12:01:02;8.60;62.40
31677;DHT22;18385;51.572;6.578;2022-11-20T12:03:35;8.60;62.70
31677;DHT22;18385;51.572;6.578;2022-11-20T12:06:14;8.50;62.80
31677;DHT22;18385;51.572;6.578;2022-11-20T12:08:46;8.40;62.90
31677;DHT22;18385;51.572;6.578;2022-11-20T12:11:31;8.40;62.90
31677;DHT22;18385;51.572;6.578;2022-11-20T12:14:08;8.40;63.00
31677;DHT22;18385;51.572;6.578;2022-11-20T12:16:36;8.40;63.10
31677;DHT22;18385;51.572;6.578;2022-11-20T12:19:08;8.50;63.20
31677;DHT22;18385;51.572;6.578;2022-11-20T12:30:02;8.70;63.20
31677;DHT22;18385;51.572;6.578;2022-11-20T12:38:32;8.80;63.10
31677;DHT22;18385;51.572;6.578;2022-11-20T12:52:49;9.00;63.20
31677;DHT22;18385;51.572;6.578;2022-11-20T12:56:49;8.90;63.20
31677;DHT22;18385;51.572;6.578;2022-11-20T12:58:59;9.00;63.30
31677;DHT22;18385;51.572;6.578;2022-11-20T13:01:40;9.00;63.30
31677;DHT22;18385;51.572;6.578;2022-11-20T13:06:56;8.90;63.30
31677;DHT22;18385;51.572;6.578;2022-11-20T13:09:23;8.90;63.60
31677;DHT22;18385;51.572;6.578;2022-11-20T13:12:13;9.00;63.70
31677;DHT22;18385;51.572;6.578;2022-11-20T13:14:42;9.20;63.50
31677;DHT22;18385;51.572;6.578;2022-11-20T13:19:53;9.20;63.40
31677;DHT22;18385;51.572;6.578;2022-11-20T13:22:27;9.10;63.30
31677;DHT22;18385;51.572;6.578;2022-11-20T13:24:54;9.10;63.30
31677;DHT22;18385;51.572;6.578;2022-11-20T13:27:23;9.10;63.40
31677;DHT22;18385;51.572;6.578;2022-11-20T13:30:14;9.10;63.40
31677;DHT22;18385;51.572;6.578;2022-11-20T13:32:50;9.10;63.40
31677;DHT22;18385;51.572;6.578;2022-11-20T13:35:35;9.00;63.40
31677;DHT22;18385;51.572;6.578;2022-11-20T13:38:06;9.00;63.60
31677;DHT22;18385;51.572;6.578;2022-11-20T13:40:36;9.00;63.80
31677;DHT22;18385;51.572;6.578;2022-11-20T13:46:01;9.00;63.90
31677;DHT22;18385;51.572;6.578;2022-11-20T13:48:33;9.00;63.90
31677;DHT22;18385;51.572;6.578;2022-11-20T14:02:15;8.80;64.40
31677;DHT22;18385;51.572;6.578;2022-11-20T14:04:49;8.70;64.50
31677;DHT22;18385;51.572;6.578;2022-11-20T14:07:18;8.70;64.60
31677;DHT22;18385;51.572;6.578;2022-11-20T14:09:56;8.70;64.60
31677;DHT22;18385;51.572;6.578;2022-11-20T14:12:28;8.70;64.70
31677;DHT22;18385;51.572;6.578;2022-11-20T14:14:54;8.70;64.80
31677;DHT22;18385;51.572;6.578;2022-11-20T14:19:58;8.70;64.90
31677;DHT22;18385;51.572;6.578;2022-11-20T14:22:26;8.70;65.00
31677;DHT22;18385;51.572;6.578;2022-11-20T14:25:06;8.70;65.00
31677;DHT22;18385;51.572;6.578;2022-11-20T14:27:43;8.70;65.00
31677;DHT22;18385;51.572;6.578;2022-11-20T14:30:18;8.70;65.00
31677;DHT22;18385;51.572;6.578;2022-11-20T14:32:45;8.70;65.10
31677;DHT22;18385;51.572;6.578;2022-11-20T14:35:29;8.70;65.20
31677;DHT22;18385;51.572;6.578;2022-11-20T14:37:55;8.70;65.30
31677;DHT22;18385;51.572;6.578;2022-11-20T14:40:32;8.70;65.30
31677;DHT22;18385;51.572;6.578;2022-11-20T14:43:01;8.70;65.30
31677;DHT22;18385;51.572;6.578;2022-11-20T14:45:27;8.60;65.30
31677;DHT22;18385;51.572;6.578;2022-11-20T14:47:56;8.60;65.40
31677;DHT22;18385;51.572;6.578;2022-11-20T14:50:28;8.60;65.50
31677;DHT22;18385;51.572;6.578;2022-11-20T14:52:56;8.50;65.60
31677;DHT22;18385;51.572;6.578;2022-11-20T14:55:32;8.60;65.80
31677;DHT22;18385;51.572;6.578;2022-11-20T14:58:06;8.60;65.80
31677;DHT22;18385;51.572;6.578;2022-11-20T15:00:34;8.70;65.80
31677;DHT22;18385;51.572;6.578;2022-11-20T15:03:00;8.70;65.80
31677;DHT22;18385;51.572;6.578;2022-11-20T15:05:44;8.70;65.80
31677;DHT22;18385;51.572;6.578;2022-11-20T15:08:16;8.70;65.70
31677;DHT22;18385;51.572;6.578;2022-11-20T15:10:51;8.70;65.90
31677;DHT22;18385;51.572;6.578;2022-11-20T15:13:34;8.70;65.90
31677;DHT22;18385;51.572;6.578;2022-11-20T15:16:03;8.70;65.90
31677;DHT22;18385;51.572;6.578;2022-11-20T15:18:32;8.70;65.90
31677;DHT22;18385;51.572;6.578;2022-11-20T15:21:03;8.70;66.00
31677;DHT22;18385;51.572;6.578;2022-11-20T15:23:29;8.70;66.10
31677;DHT22;18385;51.572;6.578;2022-11-20T15:25:55;8.70;66.20
31677;DHT22;18385;51.572;6.578;2022-11-20T15:28:36;8.60;66.10
31677;DHT22;18385;51.572;6.578;2022-11-20T15:31:03;8.60;66.20
31677;DHT22;18385;51.572;6.578;2022-11-20T15:33:31;8.60;66.30
31677;DHT22;18385;51.572;6.578;2022-11-20T15:35:56;8.60;66.40
31677;DHT22;18385;51.572;6.578;2022-11-20T15:38:22;8.60;66.50
31677;DHT22;18385;51.572;6.578;2022-11-20T15:40:48;8.50;66.50
31677;DHT22;18385;51.572;6.578;2022-11-20T15:43:14;8.50;66.60
31677;DHT22;18385;51.572;6.578;2022-11-20T15:45:48;8.50;66.60
31677;DHT22;18385;51.572;6.578;2022-11-20T15:48:23;8.50;66.70
31677;DHT22;18385;51.572;6.578;2022-11-20T15:53:21;8.50;66.80
31677;DHT22;18385;51.572;6.578;2022-11-20T15:55:47;8.50;66.90
31677;DHT22;18385;51.572;6.578;2022-11-20T15:58:12;8.50;66.80
31677;DHT22;18385;51.572;6.578;2022-11-20T16:00:38;8.60;66.90
31677;DHT22;18385;51.572;6.578;2022-11-20T16:03:04;8.60;66.90
31677;DHT22;18385;51.572;6.578;2022-11-20T16:05:29;8.60;66.90
31677;DHT22;18385;51.572;6.578;2022-11-20T16:07:56;8.50;66.90
31677;DHT22;18385;51.572;6.578;2022-11-20T16:10:22;8.60;67.00
31677;DHT22;18385;51.572;6.578;2022-11-20T16:12:48;8.60;67.00
31677;DHT22;18385;51.572;6.578;2022-11-20T16:15:32;8.50;67.00
31677;DHT22;18385;51.572;6.578;2022-11-20T16:18:12;8.50;67.00
31677;DHT22;18385;51.572;6.578;2022-11-20T16:20:39;8.50;67.20
31677;DHT22;18385;51.572;6.578;2022-11-20T16:23:05;8.50;67.20
31677;DHT22;18385;51.572;6.578;2022-11-20T16:25:31;8.60;67.30
31677;DHT22;18385;51.572;6.578;2022-11-20T16:27:57;8.60;67.20
31677;DHT22;18385;51.572;6.578;2022-11-20T16:30:22;8.60;67.20
31677;DHT22;18385;51.572;6.578;2022-11-20T16:32:48;8.60;67.20
31677;DHT22;18385;51.572;6.578;2022-11-20T16:35:14;8.60;67.20
31677;DHT22;18385;51.572;6.578;2022-11-20T16:37:40;8.60;67.30
31677;DHT22;18385;51.572;6.578;2022-11-20T16:40:06;8.50;67.30
31677;DHT22;18385;51.572;6.578;2022-11-20T16:42:35;8.50;68.10
31677;DHT22;18385;51.572;6.578;2022-11-20T16:45:01;8.50;67.50
31677;DHT22;18385;51.572;6.578;2022-11-20T16:47:26;8.50;67.50
31677;DHT22;18385;51.572;6.578;2022-11-20T16:49:52;8.50;67.60
31677;DHT22;18385;51.572;6.578;2022-11-20T16:52:18;8.40;67.70
31677;DHT22;18385;51.572;6.578;2022-11-20T16:54:43;8.40;67.80
31677;DHT22;18385;51.572;6.578;2022-11-20T16:57:09;8.40;67.90
31677;DHT22;18385;51.572;6.578;2022-11-20T16:59:34;8.40;68.00
31677;DHT22;18385;51.572;6.578;2022-11-20T17:02:00;8.40;68.00
31677;DHT22;18385;51.572;6.578;2022-11-20T17:04:26;8.40;68.10
31677;DHT22;18385;51.572;6.578;2022-11-20T17:06:51;8.50;68.20
31677;DHT22;18385;51.572;6.578;2022-11-20T17:09:17;8.50;68.20
31677;DHT22;18385;51.572;6.578;2022-11-20T17:11:43;8.50;68.20
31677;DHT22;18385;51.572;6.578;2022-11-20T17:14:10;8.60;68.20
31677;DHT22;18385;51.572;6.578;2022-11-20T17:16:36;8.60;68.10
31677;DHT22;18385;51.572;6.578;2022-11-20T17:19:03;8.70;68.20
31677;DHT22;18385;51.572;6.578;2022-11-20T17:21:31;8.70;68.10
31677;DHT22;18385;51.572;6.578;2022-11-20T17:24:00;8.60;68.00
31677;DHT22;18385;51.572;6.578;2022-11-20T17:26:26;8.60;68.20
31677;DHT22;18385;51.572;6.578;2022-11-20T17:29:03;8.60;68.30
31677;DHT22;18385;51.572;6.578;2022-11-20T17:31:31;8.60;68.40
31677;DHT22;18385;51.572;6.578;2022-11-20T17:33:57;8.60;68.40
31677;DHT22;18385;51.572;6.578;2022-11-20T17:36:26;8.60;68.50
31677;DHT22;18385;51.572;6.578;2022-11-20T17:38:52;8.60;68.50
31677;DHT22;18385;51.572;6.578;2022-11-20T17:41:20;8.60;68.60